首页
METAR-TAF:

METAR-TAF

机场 :

重庆江北国际机场

重庆, 中华人民共和国

纬度: 29-31N, 经度: 106-29E, 海拔: 351米

当前天气观测

该预报发布于1小时和18分钟前的00:00 UTC
风速4节,风向北转东北
温度 13°C
湿度 88%
气压 1017 hPa
能見度: 5000
散云层高于4000英尺
轻雾

METAR: ZUCK 130000Z 03002MPS 5000 BR SCT040 13/11 Q1017 NOSIG

时间: 09:18 (01:18 UTC)

预报

该预报发布于6小时和8分钟前的19:10 UTC
预报有效从13日的 00点(UTC)到 13日的 24点(UTC)
风速6节,风向北转东北
能見度: 3500
散云层高于1500英尺
阴天层高于5000英尺
轻雾
短暂存在
从 13日的 18点(UTC)到 13日的 24点(UTC)
小阵雨

TAF: ZUCK 121910Z 1300/1324 03003MPS 3500 BR SCT015 OVC050 TX15/1308Z TN11/1322Z TEMPO 1318/1324 -SHRA

超过4000个机场的气象观测和天气预报(METAR&TAF报告)。

可查询的气象台以黄色和红色小点在地图上表示。

将鼠标移到小点上方,可查看气象台名称。

然后点击查看天气观测和预报。

如需切换地图:点击带黑十字的绿色按钮放大地图;点击带横线的绿色按钮缩小地图;或者点击绿色箭头查看邻近地区的地图。


METAR-TAF: